createdAt,value
2023-03-07T00:00:46.378Z,99581.94
2023-03-07T00:03:14.746Z,99571.56
2023-03-07T00:05:41.885Z,99582.78
2023-03-07T00:08:09.271Z,99575.00
2023-03-07T00:10:35.914Z,99569.78
2023-03-07T00:13:04.111Z,99568.03
2023-03-07T00:15:30.976Z,99550.78
2023-03-07T00:17:58.300Z,99560.22
2023-03-07T00:20:24.955Z,99556.75
2023-03-07T00:22:51.588Z,99556.72
2023-03-07T00:25:18.266Z,99555.00
2023-03-07T00:27:44.894Z,99556.66
2023-03-07T00:30:14.629Z,99555.81
2023-03-07T00:32:41.312Z,99552.38
2023-03-07T00:35:08.382Z,99538.53
2023-03-07T00:37:34.975Z,99552.31
2023-03-07T00:40:01.748Z,99547.13
2023-03-07T00:42:28.362Z,99544.47
2023-03-07T00:44:54.967Z,99538.31
2023-03-07T00:47:21.828Z,99540.78
2023-03-07T00:49:48.509Z,99537.25
2023-03-07T00:52:15.145Z,99533.81
2023-03-07T00:54:41.761Z,99543.25
2023-03-07T00:57:08.364Z,99534.63
2023-03-07T00:59:34.968Z,99545.88
2023-03-07T01:02:01.595Z,99534.69
2023-03-07T01:04:28.423Z,99536.41
2023-03-07T01:06:55.068Z,99529.50
2023-03-07T01:09:21.716Z,99533.81
2023-03-07T01:11:49.498Z,99524.34
2023-03-07T01:14:16.176Z,99522.63
2023-03-07T01:16:42.906Z,99523.47
2023-03-07T01:19:12.800Z,99514.78
2023-03-07T01:21:42.139Z,99519.00
2023-03-07T01:24:13.436Z,99514.69
2023-03-07T01:26:40.168Z,99507.78
2023-03-07T01:29:07.825Z,99505.19
2023-03-07T01:31:35.097Z,99503.44
2023-03-07T01:34:02.381Z,99505.16
2023-03-07T01:36:33.045Z,99500.00
2023-03-07T01:39:06.751Z,99500.00
2023-03-07T01:41:38.417Z,99493.13
2023-03-07T01:44:16.872Z,99498.28
2023-03-07T01:46:50.499Z,99501.69
2023-03-07T01:49:42.921Z,99499.97
2023-03-07T01:52:14.869Z,99490.47
2023-03-07T01:54:48.928Z,99490.44
2023-03-07T01:57:19.520Z,99489.56
2023-03-07T01:59:49.273Z,99493.00
2023-03-07T02:02:19.737Z,99484.38
2023-03-07T02:04:51.218Z,99481.78
2023-03-07T02:07:21.117Z,99489.47
2023-03-07T02:09:50.653Z,99490.31
2023-03-07T02:12:17.363Z,99481.66
2023-03-07T02:14:46.462Z,99482.50
2023-03-07T02:17:13.485Z,99480.75
2023-03-07T02:20:21.686Z,99466.84
2023-03-07T02:22:49.977Z,99469.34
2023-03-07T02:26:03.263Z,99466.69
2023-03-07T02:28:30.270Z,99458.97
2023-03-07T02:31:03.923Z,99458.09
2023-03-07T02:33:30.744Z,99458.09
2023-03-07T02:36:02.832Z,99452.94
2023-03-07T02:38:32.292Z,99447.78
2023-03-07T02:40:59.097Z,99449.47
2023-03-07T02:43:25.979Z,99440.88
2023-03-07T02:45:52.856Z,99440.88
2023-03-07T02:48:19.504Z,99433.13
2023-03-07T02:50:48.308Z,99436.59
2023-03-07T02:53:15.956Z,99429.72
2023-03-07T02:55:42.684Z,99427.16
2023-03-07T02:58:09.324Z,99435.69
2023-03-07T03:00:37.138Z,99434.78
2023-03-07T03:03:04.076Z,99430.47
2023-03-07T03:05:30.726Z,99415.00
2023-03-07T03:07:57.445Z,99414.13
2023-03-07T03:10:24.273Z,99421.88
2023-03-07T03:12:50.945Z,99411.56
2023-03-07T03:15:17.745Z,99412.38
2023-03-07T03:17:44.445Z,99414.00
2023-03-07T03:20:12.906Z,99409.69
2023-03-07T03:22:40.815Z,99409.69
2023-03-07T03:25:10.038Z,99408.81
2023-03-07T03:27:38.103Z,99409.66
2023-03-07T03:30:06.699Z,99408.78
2023-03-07T03:32:33.763Z,99400.94
2023-03-07T03:35:00.630Z,99399.19
2023-03-07T03:37:27.587Z,99397.44
2023-03-07T03:39:56.933Z,99393.94
2023-03-07T03:42:23.941Z,99397.34
2023-03-07T03:44:50.554Z,99399.06
2023-03-07T03:47:17.277Z,99389.63
2023-03-07T03:49:43.962Z,99393.00
2023-03-07T03:52:10.628Z,99390.44
2023-03-07T03:54:37.305Z,99399.03
2023-03-07T03:57:04.087Z,99387.81
2023-03-07T03:59:30.803Z,99386.94
2023-03-07T04:01:57.534Z,99386.94
2023-03-07T04:04:24.180Z,99385.19
2023-03-07T04:06:51.086Z,99389.41
2023-03-07T04:09:17.800Z,99385.91
2023-03-07T04:11:44.409Z,99390.16
2023-03-07T04:14:11.380Z,99390.16
2023-03-07T04:16:38.102Z,99380.72
2023-03-07T04:19:04.826Z,99390.97
2023-03-07T04:21:31.468Z,99386.59
2023-03-07T04:23:58.505Z,99382.19
2023-03-07T04:26:25.759Z,99379.66
2023-03-07T04:28:52.490Z,99376.19
2023-03-07T04:31:25.832Z,99378.78
2023-03-07T04:33:54.559Z,99370.22
2023-03-07T04:36:22.396Z,99375.34
2023-03-07T04:38:50.106Z,99372.72
2023-03-07T04:41:19.524Z,99366.66
2023-03-07T04:43:46.446Z,99362.34
2023-03-07T04:46:14.889Z,99366.66
2023-03-07T04:48:42.373Z,99370.91
2023-03-07T04:51:09.264Z,99372.56
2023-03-07T04:53:36.020Z,99369.88
2023-03-07T04:56:05.541Z,99376.53
2023-03-07T04:58:33.380Z,99377.34
2023-03-07T05:01:02.320Z,99369.69
2023-03-07T05:03:29.786Z,99363.72
2023-03-07T05:05:56.399Z,99366.34
2023-03-07T05:08:23.187Z,99354.38
2023-03-07T05:10:49.934Z,99355.34
2023-03-07T05:13:16.573Z,99349.38
2023-03-07T05:15:44.041Z,99344.22
2023-03-07T05:18:10.667Z,99351.13
2023-03-07T05:20:38.085Z,99346.81
2023-03-07T05:23:04.744Z,99346.81
2023-03-07T05:25:31.734Z,99350.25
2023-03-07T05:27:58.365Z,99344.28
2023-03-07T05:30:24.996Z,99346.91
2023-03-07T05:32:51.776Z,99345.19
2023-03-07T05:35:19.211Z,99343.47
2023-03-07T05:37:45.852Z,99348.63
2023-03-07T05:40:14.028Z,99343.47
2023-03-07T05:42:40.652Z,99343.50
2023-03-07T05:45:07.863Z,99344.38
2023-03-07T05:47:34.504Z,99343.56
2023-03-07T05:50:01.293Z,99333.25
2023-03-07T05:52:28.834Z,99340.13
2023-03-07T05:54:55.825Z,99334.97
2023-03-07T05:57:23.290Z,99334.13
2023-03-07T05:59:49.965Z,99329.81
2023-03-07T06:02:17.012Z,99330.69
2023-03-07T06:04:44.229Z,99326.34
2023-03-07T06:07:10.837Z,99322.03
2023-03-07T06:09:37.436Z,99324.63
2023-03-07T06:12:04.321Z,99324.63
2023-03-07T06:14:32.406Z,99319.47
2023-03-07T06:16:59.044Z,99319.44
2023-03-07T06:19:25.799Z,99327.09
2023-03-07T06:21:52.404Z,99326.16
2023-03-07T06:24:19.040Z,99321.00
2023-03-07T06:26:45.655Z,99317.56
2023-03-07T06:29:12.286Z,99315.03
2023-03-07T06:31:38.995Z,99316.81
2023-03-07T06:34:05.742Z,99311.75
2023-03-07T06:36:32.445Z,99309.22
2023-03-07T06:39:02.207Z,99316.19
2023-03-07T06:41:28.985Z,99316.19
2023-03-07T06:43:55.662Z,99316.22
2023-03-07T06:46:22.562Z,99307.69
2023-03-07T06:48:51.192Z,99308.56
2023-03-07T06:51:18.252Z,99304.31
2023-03-07T06:53:44.962Z,99310.41
2023-03-07T06:56:11.634Z,99306.16
2023-03-07T06:58:38.238Z,99302.78
2023-03-07T07:01:05.043Z,99300.25
2023-03-07T07:03:31.698Z,99296.03
2023-03-07T07:05:58.420Z,99296.06
2023-03-07T07:08:25.050Z,99296.16
2023-03-07T07:10:51.677Z,99299.63
2023-03-07T07:13:18.320Z,99287.63
2023-03-07T07:15:44.965Z,99286.00
2023-03-07T07:18:14.049Z,99283.50
2023-03-07T07:20:40.865Z,99277.53
2023-03-07T07:23:07.482Z,99279.34
2023-03-07T07:25:34.147Z,99272.53
2023-03-07T07:28:00.751Z,99276.00
2023-03-07T07:30:28.021Z,99270.94
2023-03-07T07:32:54.835Z,99265.84
2023-03-07T07:35:22.361Z,99266.78
2023-03-07T07:37:49.043Z,99254.78
2023-03-07T07:40:15.762Z,99248.84
2023-03-07T07:42:43.633Z,99257.47
2023-03-07T07:45:10.826Z,99243.75
2023-03-07T07:47:37.520Z,99244.66
2023-03-07T07:50:04.620Z,99237.81
2023-03-07T07:52:31.252Z,99240.44
2023-03-07T07:54:57.861Z,99240.44
2023-03-07T07:57:24.534Z,99235.34
2023-03-07T07:59:51.288Z,99241.38
2023-03-07T08:02:17.954Z,99240.53
2023-03-07T08:04:46.096Z,99231.06
2023-03-07T08:07:14.178Z,99231.94
2023-03-07T08:09:40.812Z,99225.03
2023-03-07T08:12:09.982Z,99223.31
2023-03-07T08:14:36.700Z,99216.41
2023-03-07T08:17:03.591Z,99217.22
2023-03-07T08:19:30.295Z,99219.81
2023-03-07T08:21:57.022Z,99217.19
2023-03-07T08:24:35.223Z,99212.78
2023-03-07T08:27:06.772Z,99208.41
2023-03-07T08:29:33.712Z,99217.00
2023-03-07T08:32:00.353Z,99207.44
2023-03-07T08:34:26.964Z,99201.31
2023-03-07T08:36:53.616Z,99201.22
2023-03-07T08:39:20.219Z,99201.09
2023-03-07T08:41:46.814Z,99189.75
2023-03-07T08:44:13.422Z,99187.00
2023-03-07T08:46:40.080Z,99173.91
2023-03-07T08:49:06.829Z,99178.13
2023-03-07T08:51:33.491Z,99174.56
2023-03-07T08:54:00.188Z,99168.41
2023-03-07T08:56:27.351Z,99166.56
2023-03-07T08:58:54.646Z,99167.28
2023-03-07T09:01:21.566Z,99160.25
2023-03-07T09:03:48.258Z,99162.78
2023-03-07T09:06:20.829Z,99149.69
2023-03-07T09:08:49.018Z,99150.47
2023-03-07T09:11:16.839Z,99155.59
2023-03-07T09:13:51.916Z,99149.47
2023-03-07T09:16:20.351Z,99143.31
2023-03-07T09:18:47.079Z,99143.22
2023-03-07T09:21:13.803Z,99136.22
2023-03-07T09:23:40.460Z,99132.66
2023-03-07T09:26:07.096Z,99129.09
2023-03-07T09:28:33.757Z,99129.00
2023-03-07T09:31:00.595Z,99130.63
2023-03-07T09:33:27.630Z,99123.59
2023-03-07T09:35:54.405Z,99123.50
2023-03-07T09:38:21.052Z,99119.94
2023-03-07T09:40:48.366Z,99117.25
2023-03-07T09:43:17.871Z,99117.16
2023-03-07T09:46:02.939Z,99107.50
2023-03-07T09:48:49.570Z,99113.47
2023-03-07T09:51:25.289Z,99105.53
2023-03-07T09:53:57.723Z,99096.78
2023-03-07T09:56:31.063Z,99094.94
2023-03-07T09:59:08.553Z,99103.53
2023-03-07T10:01:44.481Z,99095.63
2023-03-07T10:04:17.965Z,99087.66
2023-03-07T10:06:48.619Z,99083.25
2023-03-07T10:09:21.008Z,99075.38
2023-03-07T10:11:53.694Z,99072.72
2023-03-07T10:14:29.440Z,99064.00
2023-03-07T10:17:02.028Z,99064.91
2023-03-07T10:19:44.619Z,99055.34
2023-03-07T10:22:20.656Z,99059.69
2023-03-07T10:25:12.450Z,99052.66
2023-03-07T10:27:39.456Z,99051.69
2023-03-07T10:30:17.856Z,99047.28
2023-03-07T10:32:47.546Z,99040.25
2023-03-07T10:35:24.353Z,99042.75
2023-03-07T10:38:09.649Z,99042.69
2023-03-07T10:40:48.865Z,99033.03
2023-03-07T10:43:23.715Z,99030.28
2023-03-07T10:46:24.771Z,99025.84
2023-03-07T10:48:55.135Z,99021.34
2023-03-07T10:51:35.025Z,99019.59
2023-03-07T10:54:02.898Z,99011.63
2023-03-07T10:56:29.638Z,99017.66
2023-03-07T10:59:00.845Z,99001.94
2023-03-07T11:01:28.194Z,99005.31
2023-03-07T11:04:05.121Z,99003.50
2023-03-07T11:06:31.715Z,98995.59
2023-03-07T11:09:15.951Z,98997.34
2023-03-07T11:11:52.644Z,98988.69
2023-03-07T11:14:20.515Z,98988.72
2023-03-07T11:17:00.163Z,98979.22
2023-03-07T11:19:40.723Z,98972.19
2023-03-07T11:22:28.709Z,98973.94
2023-03-07T11:25:26.665Z,98963.44
2023-03-07T11:27:58.112Z,98967.88
2023-03-07T11:30:28.044Z,98952.28
2023-03-07T11:33:08.234Z,98947.94
2023-03-07T11:35:43.154Z,98952.28
2023-03-07T11:38:44.547Z,98939.31
2023-03-07T11:41:19.940Z,98938.53
2023-03-07T11:43:52.313Z,98932.34
2023-03-07T11:46:41.349Z,98930.50
2023-03-07T11:49:44.478Z,98926.94
2023-03-07T11:52:14.295Z,98917.25
2023-03-07T11:54:50.846Z,98914.56
2023-03-07T11:57:40.281Z,98904.03
2023-03-07T12:00:41.579Z,98901.34
2023-03-07T12:03:08.227Z,98893.50
2023-03-07T12:05:34.889Z,98902.28
2023-03-07T12:08:15.344Z,98900.53
2023-03-07T12:11:04.887Z,98885.72
2023-03-07T12:13:40.702Z,98883.16
2023-03-07T12:16:41.493Z,98876.19
2023-03-07T12:19:25.039Z,98871.91
2023-03-07T12:22:16.407Z,98869.31
2023-03-07T12:25:17.662Z,98868.44
2023-03-07T12:27:56.394Z,98864.03
2023-03-07T12:30:30.920Z,98860.44
2023-03-07T12:32:58.371Z,98850.00
2023-03-07T12:35:25.469Z,98840.41
2023-03-07T12:37:56.545Z,98845.53
2023-03-07T12:40:35.731Z,98839.47
2023-03-07T12:43:16.628Z,98823.75
2023-03-07T12:45:57.711Z,98826.34
2023-03-07T12:48:45.624Z,98821.13
2023-03-07T12:51:27.016Z,98833.41
2023-03-07T12:54:08.740Z,98826.50
2023-03-07T12:56:59.598Z,98816.19
2023-03-07T12:59:27.320Z,98805.84
2023-03-07T13:02:04.085Z,98806.69
2023-03-07T13:04:39.319Z,98797.09
2023-03-07T13:07:11.332Z,98791.88
2023-03-07T13:09:44.345Z,98797.94
2023-03-07T13:12:16.174Z,98784.88
2023-03-07T13:14:56.302Z,98777.00
2023-03-07T13:17:33.260Z,98777.06
2023-03-07T13:20:15.287Z,98770.25
2023-03-07T13:22:41.949Z,98767.72
2023-03-07T13:25:21.073Z,98766.94
2023-03-07T13:27:51.653Z,98757.34
2023-03-07T13:30:21.746Z,98754.81
2023-03-07T13:32:48.462Z,98744.41
2023-03-07T13:35:24.375Z,98753.06
2023-03-07T13:37:57.062Z,98742.63
2023-03-07T13:40:37.762Z,98738.31
2023-03-07T13:43:27.286Z,98719.34
2023-03-07T13:46:14.616Z,98726.41
2023-03-07T13:48:41.217Z,98713.41
2023-03-07T13:51:09.462Z,98713.44
2023-03-07T13:53:50.959Z,98706.47
2023-03-07T13:56:24.860Z,98696.97
2023-03-07T13:59:09.961Z,98699.50
2023-03-07T14:01:39.560Z,98695.22
2023-03-07T14:04:16.951Z,98685.72
2023-03-07T14:06:58.280Z,98679.66
2023-03-07T14:09:39.580Z,98675.28
2023-03-07T14:12:18.271Z,98672.69
2023-03-07T14:14:47.802Z,98670.97
2023-03-07T14:17:14.348Z,98667.53
2023-03-07T14:19:49.719Z,98664.09
2023-03-07T14:22:22.292Z,98664.22
2023-03-07T14:25:10.807Z,98655.63
2023-03-07T14:27:57.681Z,98642.78
2023-03-07T14:30:28.044Z,98644.66
2023-03-07T14:32:55.055Z,98642.13
2023-03-07T14:35:45.223Z,98635.22
2023-03-07T14:38:24.711Z,98637.91
2023-03-07T14:41:08.969Z,98637.09
2023-03-07T14:43:54.274Z,98625.91
2023-03-07T14:46:59.924Z,98615.63
2023-03-07T14:49:45.802Z,98607.88
2023-03-07T14:52:29.659Z,98611.53
2023-03-07T14:55:01.824Z,98602.97
2023-03-07T14:57:36.745Z,98595.16
2023-03-07T15:00:15.768Z,98589.16
2023-03-07T15:02:54.525Z,98588.41
2023-03-07T15:05:30.504Z,98585.84
2023-03-07T15:07:57.778Z,98584.13
2023-03-07T15:10:34.737Z,98580.75
2023-03-07T15:13:05.055Z,98575.72
2023-03-07T15:15:44.894Z,98571.47
2023-03-07T15:18:26.911Z,98563.72
2023-03-07T15:20:56.376Z,98572.44
2023-03-07T15:23:27.801Z,98563.84
2023-03-07T15:26:05.128Z,98553.44
2023-03-07T15:28:36.944Z,98557.84
2023-03-07T15:31:05.203Z,98547.47
2023-03-07T15:33:35.822Z,98539.88
2023-03-07T15:36:14.318Z,98536.50
2023-03-07T15:38:50.403Z,98531.38
2023-03-07T15:41:35.975Z,98533.91
2023-03-07T15:44:11.680Z,98528.75
2023-03-07T15:46:43.277Z,98518.47
2023-03-07T15:49:50.106Z,98501.19
2023-03-07T15:52:37.809Z,98510.00
2023-03-07T15:55:08.250Z,98504.91
2023-03-07T15:57:40.424Z,98498.03
2023-03-07T16:00:16.661Z,98498.13
2023-03-07T16:02:50.672Z,98488.63
2023-03-07T16:05:20.856Z,98489.53
2023-03-07T16:07:49.199Z,98480.03
2023-03-07T16:10:16.155Z,98480.03
2023-03-07T16:12:46.569Z,98475.75
2023-03-07T16:15:17.963Z,98471.47
2023-03-07T16:17:45.354Z,98464.56
2023-03-07T16:20:18.714Z,98464.66
2023-03-07T16:22:47.191Z,98459.50
2023-03-07T16:25:15.759Z,98456.13
2023-03-07T16:27:54.897Z,98448.34
2023-03-07T16:30:24.395Z,98446.66
2023-03-07T16:32:51.108Z,98438.00
2023-03-07T16:35:21.412Z,98437.16
2023-03-07T16:37:48.032Z,98438.00
2023-03-07T16:40:16.104Z,98432.81
2023-03-07T16:42:45.209Z,98433.66
2023-03-07T16:45:18.812Z,98425.97
2023-03-07T16:47:47.121Z,98413.97
2023-03-07T16:50:18.817Z,98413.19
2023-03-07T16:52:45.457Z,98416.56
2023-03-07T16:55:14.527Z,98413.19
2023-03-07T16:57:46.481Z,98409.75
2023-03-07T17:00:16.967Z,98401.22
2023-03-07T17:02:45.209Z,98394.28
2023-03-07T17:05:25.794Z,98380.44
2023-03-07T17:07:53.647Z,98373.50
2023-03-07T17:10:20.864Z,98363.09
2023-03-07T17:12:50.162Z,98366.59
2023-03-07T17:15:19.986Z,98362.31
2023-03-07T17:17:46.751Z,98362.41
2023-03-07T17:20:20.483Z,98356.44
2023-03-07T17:22:47.191Z,98346.03
2023-03-07T17:25:13.852Z,98342.56
2023-03-07T17:27:57.574Z,98343.41
2023-03-07T17:30:27.143Z,98336.59
2023-03-07T17:32:54.188Z,98323.59
2023-03-07T17:35:21.937Z,98325.34
2023-03-07T17:37:51.700Z,98320.94
2023-03-07T17:40:19.162Z,98316.56
2023-03-07T17:42:48.227Z,98314.81
2023-03-07T17:45:14.840Z,98307.94
2023-03-07T17:47:41.496Z,98299.22
2023-03-07T17:50:09.631Z,98302.72
2023-03-07T17:52:36.787Z,98291.53
2023-03-07T17:55:03.775Z,98284.59
2023-03-07T17:57:30.413Z,98280.22
2023-03-07T17:59:57.011Z,98284.53
2023-03-07T18:02:23.917Z,98278.53
2023-03-07T18:04:51.646Z,98279.41
2023-03-07T18:07:19.796Z,98271.59
2023-03-07T18:09:48.454Z,98264.63
2023-03-07T18:12:18.299Z,98264.63
2023-03-07T18:14:44.993Z,98258.44
2023-03-07T18:17:11.675Z,98251.50
2023-03-07T18:19:39.339Z,98243.75
2023-03-07T18:22:06.566Z,98252.41
2023-03-07T18:24:33.291Z,98244.59
2023-03-07T18:27:01.152Z,98238.47
2023-03-07T18:29:29.102Z,98235.81
2023-03-07T18:31:55.922Z,98227.13
2023-03-07T18:34:24.715Z,98227.09
2023-03-07T18:36:53.052Z,98232.28
2023-03-07T18:39:22.686Z,98229.69
2023-03-07T18:41:50.045Z,98219.19
2023-03-07T18:44:18.654Z,98215.69
2023-03-07T18:46:46.083Z,98217.31
2023-03-07T18:49:13.085Z,98217.22
2023-03-07T18:51:40.260Z,98203.31
2023-03-07T18:54:08.983Z,98209.38
2023-03-07T18:56:35.624Z,98206.81
2023-03-07T18:59:02.284Z,98206.81
2023-03-07T19:01:31.542Z,98203.31
2023-03-07T19:04:01.363Z,98203.28
2023-03-07T19:06:38.765Z,98186.78
2023-03-07T19:09:05.520Z,98181.53
2023-03-07T19:11:32.485Z,98183.25
2023-03-07T19:13:59.577Z,98177.13
2023-03-07T19:16:28.219Z,98167.63
2023-03-07T19:18:55.845Z,98170.22
2023-03-07T19:21:24.704Z,98162.34
2023-03-07T19:23:53.263Z,98156.28
2023-03-07T19:26:21.367Z,98160.59
2023-03-07T19:28:50.709Z,98150.13
2023-03-07T19:31:18.825Z,98146.56
2023-03-07T19:33:47.104Z,98135.16
2023-03-07T19:36:41.823Z,98133.41
2023-03-07T19:39:10.548Z,98129.84
2023-03-07T19:41:40.194Z,98126.34
2023-03-07T19:44:12.085Z,98128.88
2023-03-07T19:46:38.894Z,98121.97
2023-03-07T19:49:05.520Z,98127.09
2023-03-07T19:51:32.133Z,98120.94
2023-03-07T19:53:58.749Z,98116.59
2023-03-07T19:56:31.819Z,98098.38
2023-03-07T19:59:00.809Z,98096.69
2023-03-07T20:01:28.927Z,98090.59
2023-03-07T20:03:55.896Z,98094.84
2023-03-07T20:06:31.008Z,98089.53
2023-03-07T20:08:59.746Z,98083.38
2023-03-07T20:11:29.805Z,98079.06
2023-03-07T20:13:58.737Z,98080.75
2023-03-07T20:16:29.137Z,98073.78
2023-03-07T20:19:01.546Z,98068.50
2023-03-07T20:21:28.890Z,98080.63
2023-03-07T20:23:59.406Z,98071.06
2023-03-07T20:26:32.567Z,98070.13
2023-03-07T20:29:01.306Z,98067.53
2023-03-07T20:31:28.967Z,98072.72
2023-03-07T20:33:58.341Z,98071.06
2023-03-07T20:36:30.292Z,98061.50
2023-03-07T20:38:58.973Z,98064.00
2023-03-07T20:41:28.547Z,98066.63
2023-03-07T20:44:02.581Z,98054.38
2023-03-07T20:46:31.171Z,98050.00
2023-03-07T20:49:00.030Z,98055.94
2023-03-07T20:51:29.066Z,98052.50
2023-03-07T20:53:59.113Z,98045.59
2023-03-07T20:56:27.754Z,98034.38
2023-03-07T20:58:55.493Z,98047.38
2023-03-07T21:01:23.625Z,98036.06
2023-03-07T21:03:51.603Z,98026.53
2023-03-07T21:06:18.751Z,98029.16
2023-03-07T21:08:47.550Z,98022.25
2023-03-07T21:11:20.343Z,98026.66
2023-03-07T21:13:49.447Z,98024.91
2023-03-07T21:16:21.441Z,98025.75
2023-03-07T21:18:48.765Z,98022.25
2023-03-07T21:21:22.112Z,98019.66
2023-03-07T21:23:49.129Z,98014.47
2023-03-07T21:26:19.508Z,98017.94
2023-03-07T21:28:47.113Z,98019.75
2023-03-07T21:31:13.747Z,98012.88
2023-03-07T21:33:42.543Z,98017.34
2023-03-07T21:36:10.814Z,98002.66
2023-03-07T21:38:39.769Z,98006.16
2023-03-07T21:41:07.460Z,98001.81
2023-03-07T21:43:34.100Z,97999.22
2023-03-07T21:46:06.541Z,97997.56
2023-03-07T21:48:33.946Z,97995.06
2023-03-07T21:51:01.237Z,97983.00
2023-03-07T21:53:28.139Z,97989.09
2023-03-07T21:55:58.023Z,97982.22
2023-03-07T21:58:25.219Z,97971.00
2023-03-07T22:00:53.651Z,97965.91
2023-03-07T22:03:20.573Z,97964.19
2023-03-07T22:05:47.224Z,97965.06
2023-03-07T22:08:16.056Z,97961.63
2023-03-07T22:10:43.276Z,97946.94
2023-03-07T22:13:10.372Z,97948.69
2023-03-07T22:15:40.357Z,97947.00
2023-03-07T22:18:07.109Z,97947.03
2023-03-07T22:20:33.736Z,97946.25
2023-03-07T22:23:00.378Z,97941.16
2023-03-07T22:25:26.992Z,97939.44
2023-03-07T22:27:53.680Z,97936.06
2023-03-07T22:30:20.461Z,97936.06
2023-03-07T22:32:47.173Z,97938.56
2023-03-07T22:35:13.833Z,97935.03
2023-03-07T22:37:41.827Z,97933.34
2023-03-07T22:40:09.308Z,97942.94
2023-03-07T22:42:35.932Z,97947.31
2023-03-07T22:45:02.543Z,97941.25
2023-03-07T22:47:31.147Z,97936.06
2023-03-07T22:49:57.773Z,97938.59
2023-03-07T22:52:24.820Z,97940.31
2023-03-07T22:54:54.144Z,97939.44
2023-03-07T22:57:21.091Z,97934.19
2023-03-07T22:59:48.549Z,97935.03
2023-03-07T23:02:15.166Z,97926.41
2023-03-07T23:04:42.036Z,97930.75
2023-03-07T23:07:08.713Z,97929.00
2023-03-07T23:09:35.406Z,97931.59
2023-03-07T23:12:02.078Z,97931.53
2023-03-07T23:14:28.723Z,97934.97
2023-03-07T23:16:55.329Z,97932.34
2023-03-07T23:19:21.961Z,97922.78
2023-03-07T23:21:48.612Z,97927.91
2023-03-07T23:24:15.231Z,97929.69
2023-03-07T23:26:42.035Z,97930.59
2023-03-07T23:29:09.986Z,97922.69
2023-03-07T23:31:38.840Z,97909.69
2023-03-07T23:34:08.339Z,97918.41
2023-03-07T23:36:35.308Z,97915.78
2023-03-07T23:39:02.095Z,97913.97
2023-03-07T23:41:28.759Z,97911.34
2023-03-07T23:43:57.624Z,97911.34
2023-03-07T23:46:24.756Z,97912.09
2023-03-07T23:48:52.146Z,97909.47
2023-03-07T23:51:19.424Z,97905.03
2023-03-07T23:53:46.280Z,97905.88
2023-03-07T23:56:13.448Z,97903.28
2023-03-07T23:58:40.250Z,97905.03
